Terminal Aerodrome Forecast
Issued by NWS Mt. Holly, NJ

Home | Current Version | Previous Version | Text Only | Print | Product List | Glossary On
Versions: 1 2 3 4 5 6 7 8 9 10 11 12 13 14 15 16 17 18 19 20 21 22 23 24 25 26 27 28 29
118
FTUS41 KPHI 111124
TAFTTN
TAF
KTTN 111124Z 1112/1212 28011KT P6SM BKN150
     FM111400 28014G26KT P6SM BKN050
     FM112300 29010G20KT P6SM SCT050
     FM120400 30005KT P6SM FEW150=

USA.gov is the U.S. government's official web portal to all federal, state and local government web resources and services.